Time;durP1;ratioP1;P1;durP2;ratioP2;P2;SDS_P1;SDS_P2;PMS_P1;PMS_P2;Temp;Humidity;BMP_temperature;BMP_pressure;BME280_temperature;BME280_humidity;BME280_pressure;Samples;Min_cycle;Max_cycle;Signal;HPM_P1;HPM_P2
2023/04/04 00:00:33;;;;;;;10.40;4.07;;;2.80;99.90;;;;;;7371529;19;20014;-62
2023/04/04 00:03:05;;;;;;;7.25;3.95;;;2.70;99.90;;;;;;7374299;19;20015;-65
2023/04/04 00:05:32;;;;;;;7.07;4.03;;;2.70;99.90;;;;;;7367923;19;20023;-62
2023/04/04 00:07:58;;;;;;;8.98;5.03;;;2.70;99.90;;;;;;7372739;19;20023;-61
2023/04/04 00:10:25;;;;;;;10.85;3.92;;;2.70;99.90;;;;;;7370757;19;20411;-62
2023/04/04 00:12:51;;;;;;;7.55;4.20;;;2.60;99.90;;;;;;7370869;19;20051;-62
2023/04/04 00:15:18;;;;;;;9.18;4.57;;;2.60;99.90;;;;;;7368426;19;20026;-62
2023/04/04 00:17:45;;;;;;;9.35;4.30;;;2.60;99.90;;;;;;7367399;19;20019;-66
2023/04/04 00:20:11;;;;;;;8.10;4.35;;;2.60;99.90;;;;;;7371642;19;20622;-65
2023/04/04 00:22:38;;;;;;;7.20;4.15;;;2.50;99.90;;;;;;7371535;19;20039;-62
2023/04/04 00:25:06;;;;;;;7.35;4.45;;;2.50;99.90;;;;;;7366055;19;20022;-62
2023/04/04 00:27:32;;;;;;;6.97;4.07;;;2.50;99.90;;;;;;7368637;19;20037;-67
2023/04/04 00:29:59;;;;;;;8.13;4.38;;;2.40;99.90;;;;;;7368632;19;20029;-67
2023/04/04 00:32:26;;;;;;;8.15;4.72;;;2.50;99.90;;;;;;7368846;19;20022;-63
2023/04/04 00:34:55;;;;;;;7.70;4.05;;;2.40;99.90;;;;;;7371180;19;20022;-62
2023/04/04 00:37:22;;;;;;;6.57;4.60;;;2.40;99.90;;;;;;7371902;19;20506;-62
2023/04/04 00:39:48;;;;;;;9.25;5.25;;;2.30;99.90;;;;;;7368850;19;20043;-67
2023/04/04 00:42:14;;;;;;;7.50;4.82;;;2.30;99.90;;;;;;7368200;19;20018;-66
2023/04/04 00:44:41;;;;;;;9.38;4.70;;;2.30;99.90;;;;;;7364791;19;20018;-66
2023/04/04 00:47:07;;;;;;;12.15;5.68;;;2.30;99.90;;;;;;7367952;19;20027;-67
2023/04/04 00:49:34;;;;;;;8.27;4.22;;;2.20;99.90;;;;;;7367517;19;20019;-66
2023/04/04 00:52:00;;;;;;;8.50;5.50;;;2.20;99.90;;;;;;7370961;19;20019;-66
2023/04/04 00:54:28;;;;;;;11.57;4.95;;;2.20;99.90;;;;;;7370000;19;20027;-62
2023/04/04 00:57:01;;;;;;;6.65;4.50;;;2.10;99.90;;;;;;7370239;19;20367;-62
2023/04/04 00:59:28;;;;;;;8.18;4.90;;;2.10;99.90;;;;;;7367593;19;20036;-62
2023/04/04 01:02:00;;;;;;;8.43;5.10;;;2.10;99.90;;;;;;7371193;19;20137;-62
2023/04/04 01:04:38;;;;;;;10.07;5.32;;;2.10;99.90;;;;;;7370670;19;20018;-66
2023/04/04 01:07:05;;;;;;;11.02;5.53;;;2.00;99.90;;;;;;7370956;19;20497;-66
2023/04/04 01:09:35;;;;;;;7.72;4.50;;;2.00;99.90;;;;;;7366000;19;20019;-66
2023/04/04 01:12:02;;;;;;;7.88;4.65;;;2.00;99.90;;;;;;7369888;19;20018;-62
2023/04/04 01:14:31;;;;;;;9.88;5.72;;;2.00;99.90;;;;;;7366167;19;20757;-62
2023/04/04 01:16:58;;;;;;;11.57;5.65;;;1.90;99.90;;;;;;7370695;19;20018;-62
2023/04/04 01:19:53;;;;;;;8.82;5.35;;;1.90;99.90;;;;;;7368913;19;20022;-62
2023/04/04 01:22:22;;;;;;;8.93;5.28;;;1.90;99.90;;;;;;7369213;19;20592;-62
2023/04/04 01:24:50;;;;;;;10.73;5.95;;;1.80;99.90;;;;;;7368358;19;20498;-62
2023/04/04 01:27:17;;;;;;;9.85;5.13;;;1.80;99.90;;;;;;7369902;19;20106;-66
2023/04/04 01:29:53;;;;;;;12.55;5.85;;;1.80;99.90;;;;;;7378741;19;20025;-63
2023/04/04 01:32:25;;;;;;;11.18;6.18;;;1.80;99.90;;;;;;7377197;19;20015;-62
2023/04/04 01:35:09;;;;;;;8.90;5.40;;;1.80;99.90;;;;;;7377192;19;20023;-66
2023/04/04 01:37:44;;;;;;;8.77;5.72;;;1.80;99.90;;;;;;7374371;19;20031;-63
2023/04/04 01:40:27;;;;;;;10.50;5.50;;;1.70;99.90;;;;;;7374111;19;20022;-63
2023/04/04 01:42:56;;;;;;;9.18;5.45;;;1.70;99.90;;;;;;7376848;19;20015;-61
2023/04/04 01:45:23;;;;;;;9.00;5.47;;;1.70;99.90;;;;;;7373734;19;20683;-62
2023/04/04 01:47:50;;;;;;;10.98;5.03;;;1.70;99.90;;;;;;7374007;19;20019;-66
2023/04/04 01:50:20;;;;;;;8.65;5.18;;;1.60;99.90;;;;;;7371201;19;20478;-66
2023/04/04 01:52:48;;;;;;;8.90;5.82;;;1.60;99.90;;;;;;7375791;19;20074;-66
2023/04/04 01:55:15;;;;;;;12.32;5.32;;;1.60;99.90;;;;;;7372998;19;20018;-66
2023/04/04 01:57:41;;;;;;;9.75;5.40;;;1.60;99.90;;;;;;7372925;19;20035;-66
2023/04/04 02:00:09;;;;;;;10.52;5.85;;;1.50;99.90;;;;;;7376274;19;20027;-62
2023/04/04 02:02:46;;;;;;;11.50;5.07;;;1.60;99.90;;;;;;7376006;19;20022;-62
2023/04/04 02:05:13;;;;;;;8.05;5.00;;;1.50;99.90;;;;;;7374640;19;20025;-62
2023/04/04 02:07:40;;;;;;;7.25;5.30;;;1.50;99.90;;;;;;7370809;19;20027;-62
2023/04/04 02:10:17;;;;;;;8.32;5.85;;;1.40;99.90;;;;;;7375610;19;20031;-62
2023/04/04 02:12:44;;;;;;;10.20;6.15;;;1.40;99.90;;;;;;7372263;19;20039;-61
2023/04/04 02:15:11;;;;;;;10.40;5.20;;;1.40;99.90;;;;;;7371132;19;20018;-62
2023/04/04 02:17:38;;;;;;;10.43;6.22;;;1.30;99.90;;;;;;7374232;19;20026;-62
2023/04/04 02:20:07;;;;;;;9.48;5.63;;;1.30;99.90;;;;;;7372529;19;20019;-66
2023/04/04 02:22:33;;;;;;;9.25;5.47;;;1.30;99.90;;;;;;7371464;19;20085;-66
2023/04/04 02:25:04;;;;;;;9.15;5.93;;;1.20;99.90;;;;;;7372980;19;20019;-66
2023/04/04 02:27:30;;;;;;;11.50;5.13;;;1.20;99.90;;;;;;7370981;19;20113;-66
2023/04/04 02:29:56;;;;;;;9.77;5.47;;;1.20;99.90;;;;;;7373021;19;20046;-62
2023/04/04 02:32:23;;;;;;;10.25;5.47;;;1.20;99.90;;;;;;7374245;19;20021;-66
2023/04/04 02:34:50;;;;;;;10.57;5.55;;;1.20;99.90;;;;;;7372313;19;20712;-66
2023/04/04 02:37:19;;;;;;;8.45;4.50;;;1.20;99.90;;;;;;7371786;19;20018;-66
2023/04/04 02:39:47;;;;;;;7.93;4.60;;;1.20;99.90;;;;;;7370925;19;20489;-66
2023/04/04 02:42:17;;;;;;;9.98;5.85;;;1.20;99.90;;;;;;7370818;19;20030;-67
2023/04/04 02:44:44;;;;;;;9.98;5.07;;;1.20;99.90;;;;;;7372189;19;20014;-67
2023/04/04 02:47:15;;;;;;;8.80;4.97;;;1.20;99.90;;;;;;7368033;19;20010;-65
2023/04/04 02:49:41;;;;;;;6.95;4.80;;;1.10;99.90;;;;;;7371149;19;20022;-65
2023/04/04 02:52:08;;;;;;;8.93;5.72;;;1.10;99.90;;;;;;7374866;19;20093;-66
2023/04/04 02:54:39;;;;;;;9.23;5.10;;;1.10;99.90;;;;;;7374828;19;20381;-66
2023/04/04 02:57:08;;;;;;;9.82;5.05;;;1.10;99.90;;;;;;7372642;19;20031;-66
2023/04/04 02:59:34;;;;;;;7.32;4.88;;;1.10;99.90;;;;;;7373055;19;20025;-62
2023/04/04 03:02:00;;;;;;;9.48;4.80;;;1.00;99.90;;;;;;7374345;19;20018;-65
2023/04/04 03:04:28;;;;;;;7.63;4.50;;;1.00;99.90;;;;;;7373329;19;20014;-66
2023/04/04 03:06:56;;;;;;;6.05;4.50;;;1.00;99.90;;;;;;7371591;19;20030;-66
2023/04/04 03:09:23;;;;;;;7.75;4.70;;;1.00;99.90;;;;;;7370175;19;20030;-66
2023/04/04 03:11:50;;;;;;;7.70;4.80;;;1.00;99.90;;;;;;7370222;19;20461;-66
2023/04/04 03:14:17;;;;;;;10.30;5.32;;;1.00;99.90;;;;;;7371668;19;20853;-66
2023/04/04 03:16:44;;;;;;;6.82;4.88;;;0.90;99.90;;;;;;7371083;19;20027;-66
2023/04/04 03:19:11;;;;;;;8.70;4.63;;;0.90;99.90;;;;;;7371765;19;20023;-66
2023/04/04 03:21:38;;;;;;;8.88;5.07;;;0.90;99.90;;;;;;7369991;19;20022;-66
2023/04/04 03:24:05;;;;;;;6.97;4.50;;;0.80;99.90;;;;;;7371942;19;20039;-65
2023/04/04 03:26:32;;;;;;;12.15;6.05;;;0.80;99.90;;;;;;7369832;19;20025;-66
2023/04/04 03:28:58;;;;;;;9.68;4.85;;;0.80;99.90;;;;;;7371527;19;20037;-65
2023/04/04 03:31:26;;;;;;;7.63;5.20;;;0.70;99.90;;;;;;7371699;19;20629;-65
2023/04/04 03:33:52;;;;;;;7.75;4.60;;;0.70;99.90;;;;;;7367934;19;20023;-66
2023/04/04 03:36:20;;;;;;;7.82;5.82;;;0.70;99.90;;;;;;7369400;19;20018;-66
2023/04/04 03:38:53;;;;;;;8.95;4.60;;;0.60;99.90;;;;;;7368876;19;20022;-66
2023/04/04 03:41:20;;;;;;;8.18;5.10;;;0.70;99.90;;;;;;7368012;19;20022;-66
2023/04/04 03:43:47;;;;;;;10.20;5.15;;;0.60;99.90;;;;;;7370033;19;20026;-66
2023/04/04 03:46:13;;;;;;;10.32;5.60;;;0.60;99.90;;;;;;7370710;19;20025;-66
2023/04/04 03:48:40;;;;;;;7.72;5.55;;;0.50;99.90;;;;;;7368040;19;20675;-66
2023/04/04 03:51:09;;;;;;;7.95;5.25;;;0.50;99.90;;;;;;7368929;19;20026;-66
2023/04/04 03:53:36;;;;;;;9.07;4.80;;;0.50;99.90;;;;;;7370395;19;20680;-67
2023/04/04 03:56:03;;;;;;;7.38;4.78;;;0.50;99.90;;;;;;7370727;19;20038;-66
2023/04/04 03:58:29;;;;;;;9.02;5.13;;;0.50;99.90;;;;;;7367632;19;20022;-66
2023/04/04 04:00:56;;;;;;;10.10;5.47;;;0.40;99.90;;;;;;7369413;19;20026;-65
2023/04/04 04:03:23;;;;;;;7.43;5.05;;;0.50;99.90;;;;;;7369482;19;20015;-62
2023/04/04 04:05:50;;;;;;;8.65;4.95;;;0.40;99.90;;;;;;7367964;19;20054;-65
2023/04/04 04:08:18;;;;;;;9.85;5.60;;;0.40;99.90;;;;;;7366831;19;20027;-66
2023/04/04 04:10:44;;;;;;;7.75;5.03;;;0.40;99.90;;;;;;7370048;19;20014;-66
2023/04/04 04:13:11;;;;;;;7.15;4.82;;;0.30;99.90;;;;;;7371505;19;20023;-62
2023/04/04 04:15:37;;;;;;;10.35;5.53;;;0.30;99.90;;;;;;7368296;19;20090;-62
2023/04/04 04:18:07;;;;;;;9.75;5.10;;;0.30;99.90;;;;;;7368566;19;20482;-61
2023/04/04 04:20:37;;;;;;;9.88;4.95;;;0.30;99.90;;;;;;7370320;19;20021;-63
2023/04/04 04:23:06;;;;;;;8.65;5.13;;;0.40;99.90;;;;;;7371222;19;20055;-62
2023/04/04 04:25:32;;;;;;;11.50;5.93;;;0.40;99.90;;;;;;7359234;19;20030;-65
2023/04/04 04:28:09;;;;;;;9.20;5.57;;;0.40;99.90;;;;;;7362951;19;20371;-62
2023/04/04 04:30:35;;;;;;;7.57;4.60;;;0.40;99.90;;;;;;7363011;19;20029;-62
2023/04/04 04:33:02;;;;;;;12.27;5.40;;;0.40;99.90;;;;;;7367741;19;20022;-61
2023/04/04 04:35:39;;;;;;;8.23;4.85;;;0.40;99.90;;;;;;7362241;19;20014;-64
2023/04/04 04:38:07;;;;;;;7.07;4.68;;;0.40;99.90;;;;;;7368410;19;20022;-66
2023/04/04 04:40:34;;;;;;;9.63;5.32;;;0.30;99.90;;;;;;7366130;19;20018;-66
2023/04/04 04:43:08;;;;;;;7.55;4.60;;;0.30;99.90;;;;;;7365865;19;20022;-66
2023/04/04 04:45:36;;;;;;;7.45;4.95;;;0.30;99.90;;;;;;7366323;19;20782;-66
2023/04/04 04:48:08;;;;;;;8.93;5.00;;;0.30;99.90;;;;;;7366774;19;20022;-66
2023/04/04 04:50:43;;;;;;;6.85;4.60;;;0.20;99.90;;;;;;7367790;19;22498;-65
2023/04/04 04:53:11;;;;;;;7.75;4.90;;;0.30;99.90;;;;;;7367183;19;20023;-65
2023/04/04 04:55:38;;;;;;;7.95;4.80;;;0.30;99.90;;;;;;7366329;19;20070;-65
2023/04/04 04:58:09;;;;;;;9.13;5.70;;;0.20;99.90;;;;;;7367522;19;20051;-65
2023/04/04 05:00:38;;;;;;;12.10;5.15;;;0.30;99.90;;;;;;7358275;19;20022;-63
2023/04/04 05:03:15;;;;;;;10.13;4.85;;;0.20;99.90;;;;;;7366643;19;20023;-65
2023/04/04 05:05:47;;;;;;;6.50;4.28;;;0.20;99.90;;;;;;7369208;19;20022;-68
2023/04/04 05:08:14;;;;;;;8.07;4.85;;;0.20;99.90;;;;;;7369964;19;20015;-62
2023/04/04 05:10:53;;;;;;;9.65;5.30;;;0.20;99.90;;;;;;7371354;19;20098;-62
2023/04/04 05:13:21;;;;;;;7.82;4.82;;;0.30;99.90;;;;;;7372636;19;20042;-63
2023/04/04 05:15:48;;;;;;;8.65;5.38;;;0.20;99.90;;;;;;7371647;19;20122;-62
2023/04/04 05:18:16;;;;;;;8.00;4.40;;;0.20;99.90;;;;;;7372432;19;20026;-62
2023/04/04 05:20:53;;;;;;;10.75;5.13;;;0.20;99.90;;;;;;7372077;19;20022;-62
2023/04/04 05:23:21;;;;;;;6.15;4.35;;;0.20;99.90;;;;;;7372171;19;21125;-61
2023/04/04 05:25:52;;;;;;;10.02;5.53;;;0.20;99.90;;;;;;7376556;19;20094;-62
2023/04/04 05:28:21;;;;;;;9.30;4.88;;;0.20;99.90;;;;;;7370333;19;20010;-63
2023/04/04 05:30:49;;;;;;;7.13;4.45;;;0.20;99.90;;;;;;7373415;19;20014;-66
2023/04/04 05:33:19;;;;;;;7.47;4.10;;;0.30;99.90;;;;;;7370413;19;20061;-66
2023/04/04 05:36:16;;;;;;;7.60;4.80;;;0.30;99.90;;;;;;7377271;19;20007;-65
2023/04/04 05:39:14;;;;;;;6.32;4.88;;;0.40;99.90;;;;;;7376905;19;20470;-65
2023/04/04 05:41:50;;;;;;;9.18;4.90;;;0.50;99.90;;;;;;7366603;19;20074;-65
2023/04/04 05:44:18;;;;;;;12.43;6.55;;;0.60;99.90;;;;;;7371757;19;20029;-65
2023/04/04 05:46:44;;;;;;;10.95;5.88;;;0.60;99.90;;;;;;7373199;19;20791;-65
2023/04/04 05:49:11;;;;;;;6.47;5.00;;;0.70;99.90;;;;;;7373478;19;20126;-65
2023/04/04 05:51:41;;;;;;;6.63;4.30;;;0.80;99.90;;;;;;7370638;19;20482;-62
2023/04/04 05:54:14;;;;;;;6.78;3.92;;;0.90;99.90;;;;;;7377179;19;20028;-63
2023/04/04 05:56:41;;;;;;;7.28;4.38;;;1.00;99.90;;;;;;7372366;19;20030;-63
2023/04/04 05:59:29;;;;;;;8.82;4.55;;;1.20;99.90;;;;;;7376245;19;20368;-63
2023/04/04 06:02:01;;;;;;;7.70;3.90;;;1.30;99.90;;;;;;7375489;19;20018;-66
2023/04/04 06:04:28;;;;;;;6.53;3.55;;;1.30;99.90;;;;;;7374239;19;20022;-66
2023/04/04 06:06:57;;;;;;;8.13;4.13;;;1.40;99.90;;;;;;7371806;19;20055;-66
2023/04/04 06:09:23;;;;;;;5.78;3.50;;;1.40;99.90;;;;;;7369497;19;20098;-66
2023/04/04 06:11:49;;;;;;;9.48;3.85;;;1.60;99.90;;;;;;7368582;19;20023;-66
2023/04/04 06:14:17;;;;;;;9.90;4.28;;;1.60;99.90;;;;;;7370714;19;20078;-66
2023/04/04 06:16:45;;;;;;;10.07;3.90;;;1.70;99.90;;;;;;7372089;19;20014;-66
2023/04/04 06:19:12;;;;;;;6.50;3.63;;;1.70;99.90;;;;;;7359208;19;20609;-67
2023/04/04 06:21:38;;;;;;;6.80;3.40;;;1.80;99.90;;;;;;7359444;19;20505;-63
2023/04/04 06:24:06;;;;;;;7.53;3.42;;;1.80;99.90;;;;;;7361121;19;20375;-63
2023/04/04 06:26:32;;;;;;;5.88;3.60;;;1.80;99.90;;;;;;7362904;19;20014;-64
2023/04/04 06:29:01;;;;;;;6.35;3.92;;;1.90;99.90;;;;;;7357693;19;20069;-63
2023/04/04 06:31:31;;;;;;;8.10;3.42;;;1.90;99.90;;;;;;7359964;19;20028;-63
2023/04/04 06:34:04;;;;;;;6.95;2.92;;;2.00;99.90;;;;;;7360793;19;20015;-63
2023/04/04 06:36:34;;;;;;;5.88;3.30;;;2.10;99.90;;;;;;7357436;19;20022;-63
2023/04/04 06:39:03;;;;;;;5.22;3.15;;;2.20;99.90;;;;;;7361898;19;20510;-63
2023/04/04 06:41:29;;;;;;;6.50;3.47;;;2.30;99.90;;;;;;7360742;19;20025;-63
2023/04/04 06:43:57;;;;;;;8.13;3.35;;;2.30;99.90;;;;;;7363555;19;20015;-63
2023/04/04 06:46:24;;;;;;;7.30;3.78;;;2.40;99.90;;;;;;7370077;19;20023;-63
2023/04/04 06:48:50;;;;;;;5.72;3.30;;;2.50;99.90;;;;;;7372153;19;20018;-63
2023/04/04 06:51:17;;;;;;;9.10;3.42;;;2.50;99.90;;;;;;7370390;19;20499;-62
2023/04/04 06:53:45;;;;;;;14.00;4.28;;;2.60;99.90;;;;;;7370929;19;20014;-63
2023/04/04 06:56:11;;;;;;;7.25;3.35;;;2.80;99.90;;;;;;7373485;19;20533;-63
2023/04/04 06:58:38;;;;;;;8.25;3.83;;;3.10;99.90;;;;;;7368714;19;20511;-63
2023/04/04 07:01:04;;;;;;;7.55;3.28;;;3.20;99.90;;;;;;7372509;19;20373;-63
2023/04/04 07:03:31;;;;;;;7.13;3.20;;;3.40;99.90;;;;;;7375913;19;20026;-63
2023/04/04 07:05:57;;;;;;;6.05;2.90;;;3.60;99.90;;;;;;7371997;19;20019;-63
2023/04/04 07:08:23;;;;;;;9.68;3.17;;;3.90;99.90;;;;;;7371593;19;20018;-67
2023/04/04 07:10:50;;;;;;;6.97;4.00;;;4.20;99.90;;;;;;7373666;19;20014;-67
2023/04/04 07:13:16;;;;;;;4.63;2.58;;;4.40;99.90;;;;;;7374847;19;20019;-63
2023/04/04 07:15:47;;;;;;;8.07;3.38;;;4.60;99.90;;;;;;7372154;19;20074;-64
2023/04/04 07:18:13;;;;;;;4.97;3.33;;;4.90;99.90;;;;;;7357178;19;20520;-65
2023/04/04 07:20:40;;;;;;;5.80;3.47;;;5.40;99.90;;;;;;7365529;19;20151;-65
2023/04/04 07:23:06;;;;;;;5.80;2.70;;;5.80;99.90;;;;;;7361243;19;20516;-63
2023/04/04 07:25:33;;;;;;;4.45;2.80;;;6.10;99.90;;;;;;7363622;19;20026;-64
2023/04/04 07:28:00;;;;;;;6.22;2.47;;;6.60;99.90;;;;;;7360035;19;20077;-66
2023/04/04 07:30:28;;;;;;;9.13;5.00;;;6.90;99.90;;;;;;7359769;19;20022;-68
2023/04/04 07:33:03;;;;;;;5.57;2.80;;;7.10;99.90;;;;;;7359293;19;20402;-68
2023/04/04 07:35:29;;;;;;;6.82;2.97;;;7.40;99.90;;;;;;7366535;19;20018;-63
2023/04/04 07:37:56;;;;;;;10.48;6.43;;;7.60;99.90;;;;;;7359474;19;20015;-68
2023/04/04 07:40:23;;;;;;;12.25;7.30;;;8.00;99.90;;;;;;7358364;19;20014;-63
2023/04/04 07:42:50;;;;;;;4.88;2.17;;;8.40;99.90;;;;;;7357917;19;20106;-66
2023/04/04 07:45:17;;;;;;;8.95;4.13;;;8.70;99.90;;;;;;7362464;19;20018;-67
2023/04/04 07:47:44;;;;;;;5.38;2.30;;;9.00;98.40;;;;;;7356806;19;20742;-67
2023/04/04 07:50:12;;;;;;;9.23;2.38;;;9.30;90.80;;;;;;7359117;19;20522;-67
2023/04/04 07:52:38;;;;;;;7.00;2.75;;;9.40;76.10;;;;;;7354550;19;20022;-67
2023/04/04 07:55:06;;;;;;;9.43;2.97;;;9.60;83.80;;;;;;7357975;19;20034;-67
2023/04/04 07:57:36;;;;;;;4.32;2.40;;;10.10;91.00;;;;;;7356257;19;20532;-68
2023/04/04 08:00:05;;;;;;;6.65;2.70;;;10.60;76.40;;;;;;7359931;19;20014;-68
2023/04/04 08:02:40;;;;;;;4.35;2.28;;;10.50;66.50;;;;;;7355387;19;20019;-67
2023/04/04 08:05:07;;;;;;;5.05;2.22;;;10.90;64.20;;;;;;7358993;19;20013;-68
2023/04/04 08:07:33;;;;;;;5.07;2.22;;;10.90;62.20;;;;;;7357890;19;20088;-67
2023/04/04 08:09:59;;;;;;;4.70;2.28;;;11.20;62.90;;;;;;7359307;19;20010;-67
2023/04/04 08:12:28;;;;;;;5.28;2.47;;;11.10;62.40;;;;;;7357047;19;20022;-67
2023/04/04 08:14:54;;;;;;;5.47;2.15;;;11.30;61.20;;;;;;7362806;19;20015;-63
2023/04/04 08:17:21;;;;;;;6.60;2.40;;;11.80;61.50;;;;;;7366152;19;20040;-63
2023/04/04 08:19:47;;;;;;;4.88;2.17;;;11.60;61.40;;;;;;7362214;19;20428;-67
2023/04/04 08:22:14;;;;;;;5.90;2.22;;;11.70;60.00;;;;;;7356929;19;20614;-67
2023/04/04 08:24:40;;;;;;;6.78;2.05;;;11.90;60.30;;;;;;7354578;19;20119;-68
2023/04/04 08:27:07;;;;;;;8.77;4.15;;;12.10;60.00;;;;;;7359940;19;20145;-67
2023/04/04 08:29:34;;;;;;;5.30;2.35;;;12.40;59.20;;;;;;7354214;19;20056;-67
2023/04/04 08:32:00;;;;;;;5.75;3.08;;;12.50;57.30;;;;;;7361890;19;20019;-63
2023/04/04 08:34:27;;;;;;;7.00;2.33;;;11.90;56.60;;;;;;7362338;19;20494;-63
2023/04/04 08:36:53;;;;;;;5.97;2.10;;;12.50;57.90;;;;;;7360382;19;20021;-63
2023/04/04 08:39:19;;;;;;;5.57;2.08;;;12.50;57.50;;;;;;7371125;19;20056;-64
2023/04/04 08:41:46;;;;;;;4.93;1.80;;;12.50;57.00;;;;;;7372497;19;20117;-63
2023/04/04 08:44:17;;;;;;;4.13;1.70;;;12.10;56.10;;;;;;7370713;19;20564;-63
2023/04/04 08:46:44;;;;;;;6.97;1.85;;;12.10;54.90;;;;;;7368872;19;20025;-63
2023/04/04 08:49:14;;;;;;;5.75;2.15;;;11.80;55.50;;;;;;7379557;19;20061;-67
2023/04/04 08:51:44;;;;;;;6.72;4.43;;;11.70;55.10;;;;;;7377462;19;20006;-68
2023/04/04 08:54:12;;;;;;;4.93;2.08;;;11.80;54.80;;;;;;7377675;19;20011;-68
2023/04/04 08:56:38;;;;;;;4.72;2.00;;;11.70;54.60;;;;;;7376068;19;20802;-67
2023/04/04 08:59:04;;;;;;;4.18;1.70;;;11.70;53.50;;;;;;7374341;19;20011;-67
2023/04/04 09:01:32;;;;;;;6.05;3.03;;;12.00;53.20;;;;;;7378185;19;20938;-67
2023/04/04 09:04:00;;;;;;;8.63;2.50;;;12.20;54.40;;;;;;7373852;19;20026;-67
2023/04/04 09:06:27;;;;;;;6.00;2.25;;;12.50;54.00;;;;;;7377216;19;20018;-67
2023/04/04 09:08:53;;;;;;;4.68;2.10;;;12.60;53.60;;;;;;7374390;19;20671;-67
2023/04/04 09:11:22;;;;;;;5.30;2.30;;;13.20;52.80;;;;;;7375898;19;20011;-67
2023/04/04 09:13:50;;;;;;;5.63;2.35;;;13.20;52.20;;;;;;7373168;19;20030;-67
2023/04/04 09:16:16;;;;;;;3.85;1.95;;;13.30;50.40;;;;;;7375164;19;20018;-67
2023/04/04 09:18:42;;;;;;;5.10;2.05;;;13.70;49.70;;;;;;7378574;19;20035;-67
2023/04/04 09:21:10;;;;;;;4.63;2.08;;;13.00;49.80;;;;;;7378836;19;20018;-64
2023/04/04 09:23:37;;;;;;;9.50;5.45;;;13.20;51.50;;;;;;7380897;19;20114;-64
2023/04/04 09:26:04;;;;;;;8.25;2.70;;;13.50;51.80;;;;;;7377235;19;20011;-63
2023/04/04 09:28:33;;;;;;;5.97;2.33;;;13.10;49.20;;;;;;7379871;19;20014;-63
2023/04/04 09:31:01;;;;;;;4.25;2.00;;;13.50;50.50;;;;;;7371991;19;20473;-64
2023/04/04 09:33:31;;;;;;;4.60;2.08;;;14.40;48.80;;;;;;7367805;19;20825;-64
2023/04/04 09:36:17;;;;;;;11.55;6.65;;;14.10;48.20;;;;;;7370070;19;20052;-64
2023/04/04 09:38:44;;;;;;;8.82;5.00;;;14.40;48.80;;;;;;7363206;19;20470;-64
2023/04/04 09:41:13;;;;;;;7.25;4.28;;;14.90;48.50;;;;;;7364243;19;21277;-63
2023/04/04 09:43:40;;;;;;;7.03;2.50;;;15.20;47.40;;;;;;7366536;19;20015;-64
2023/04/04 09:46:06;;;;;;;5.50;2.40;;;15.00;46.80;;;;;;7380501;19;20027;-64
2023/04/04 09:48:35;;;;;;;8.10;4.65;;;14.70;46.10;;;;;;7374640;19;20015;-64
2023/04/04 09:51:11;;;;;;;7.07;2.75;;;15.30;46.60;;;;;;7377286;19;20030;-63
2023/04/04 09:53:40;;;;;;;6.82;4.00;;;15.20;45.30;;;;;;7374557;19;20025;-64
2023/04/04 09:56:07;;;;;;;5.28;3.00;;;15.40;46.50;;;;;;7379381;19;20019;-64
2023/04/04 09:58:37;;;;;;;10.38;8.32;;;16.30;47.40;;;;;;7377184;19;20018;-63
2023/04/04 10:01:11;;;;;;;4.43;2.13;;;16.30;44.60;;;;;;7378919;19;20033;-63
2023/04/04 10:03:38;;;;;;;6.78;3.33;;;16.80;45.20;;;;;;7376781;19;20596;-63
2023/04/04 10:06:05;;;;;;;7.47;3.88;;;16.50;44.40;;;;;;7380870;19;20493;-65
2023/04/04 10:08:32;;;;;;;6.25;1.90;;;16.80;43.70;;;;;;7378466;19;20043;-64
2023/04/04 10:11:03;;;;;;;4.88;2.10;;;16.70;43.80;;;;;;7377264;19;20025;-63
2023/04/04 10:13:31;;;;;;;4.50;1.83;;;16.80;43.00;;;;;;7379494;19;20482;-64
2023/04/04 10:15:59;;;;;;;7.57;3.50;;;16.80;42.80;;;;;;7375402;19;20022;-63
2023/04/04 10:18:27;;;;;;;3.97;2.10;;;17.30;42.30;;;;;;7375871;19;20054;-63
2023/04/04 10:20:55;;;;;;;5.13;2.30;;;17.00;41.50;;;;;;7374511;19;20026;-64
2023/04/04 10:23:25;;;;;;;6.28;2.30;;;17.40;42.00;;;;;;7377326;19;20366;-63
2023/04/04 10:25:58;;;;;;;5.60;2.35;;;17.30;41.40;;;;;;7376255;19;20355;-63
2023/04/04 10:28:26;;;;;;;6.78;2.58;;;17.90;42.80;;;;;;7379290;19;20046;-63
2023/04/04 10:31:07;;;;;;;3.92;2.17;;;17.80;41.00;;;;;;7364813;19;20015;-63
2023/04/04 10:33:48;;;;;;;5.35;1.92;;;17.80;41.20;;;;;;7365219;19;20043;-63
2023/04/04 10:36:15;;;;;;;;;;;16.80;39.90;;;;;;7370700;19;20018;-64
2023/04/04 10:38:46;;;;;;;7.50;2.25;;;17.10;40.80;;;;;;7368798;19;19918;-64
2023/04/04 10:41:13;;;;;;;4.57;2.10;;;17.60;41.70;;;;;;7363899;19;20031;-68
2023/04/04 10:43:41;;;;;;;3.97;2.10;;;17.10;39.60;;;;;;7358602;19;20025;-68
2023/04/04 10:46:12;;;;;;;4.75;2.30;;;17.90;40.60;;;;;;7362284;19;20014;-68
2023/04/04 10:48:40;;;;;;;5.85;3.05;;;18.30;39.10;;;;;;7360584;19;20648;-68
2023/04/04 10:51:08;;;;;;;9.80;8.10;;;18.50;41.60;;;;;;7361983;19;20014;-61
2023/04/04 10:53:35;;;;;;;6.75;4.20;;;18.60;40.60;;;;;;7361662;19;20031;-62
2023/04/04 10:56:02;;;;;;;3.50;1.83;;;19.10;38.80;;;;;;7364744;19;20498;-62
2023/04/04 10:58:28;;;;;;;4.72;3.17;;;18.40;38.30;;;;;;7363925;19;20497;-63
2023/04/04 11:00:56;;;;;;;4.57;2.30;;;18.50;40.20;;;;;;7360797;19;20485;-63
2023/04/04 11:03:24;;;;;;;5.93;2.45;;;18.20;38.40;;;;;;7361557;19;20018;-63
2023/04/04 11:05:54;;;;;;;5.30;2.58;;;16.70;39.50;;;;;;7362100;19;20816;-63
2023/04/04 11:08:29;;;;;;;5.90;4.10;;;17.00;40.60;;;;;;7364678;19;20053;-62
2023/04/04 11:10:56;;;;;;;4.60;2.83;;;17.50;40.50;;;;;;7361847;19;20018;-63
2023/04/04 11:13:28;;;;;;;4.47;1.92;;;17.80;41.40;;;;;;7367319;19;20006;-63
2023/04/04 11:15:58;;;;;;;;;;;16.90;40.00;;;;;;7363986;19;20018;-63
2023/04/04 11:18:31;;;;;;;3.95;2.10;;;17.60;40.20;;;;;;7359526;19;20358;-63
2023/04/04 11:21:00;;;;;;;8.05;4.40;;;18.30;40.80;;;;;;7359396;19;20023;-63
2023/04/04 11:23:37;;;;;;;4.38;2.15;;;17.70;39.10;;;;;;7364479;19;20042;-63
2023/04/04 11:26:07;;;;;;;5.75;2.17;;;18.30;40.10;;;;;;7363166;19;20532;-63
2023/04/04 11:28:33;;;;;;;4.65;2.00;;;18.10;38.90;;;;;;7365660;19;20528;-63
2023/04/04 11:31:19;;;;;;;5.18;2.40;;;17.80;39.60;;;;;;7361978;19;20039;-67
2023/04/04 11:34:01;;;;;;;6.18;2.40;;;17.50;39.40;;;;;;7357779;19;20014;-68
2023/04/04 11:36:36;;;;;;;6.75;2.28;;;17.10;39.30;;;;;;7361648;19;20015;-67
2023/04/04 11:39:08;;;;;;;5.30;2.05;;;17.50;40.80;;;;;;7365993;19;20014;-67
2023/04/04 11:41:47;;;;;;;;;;;17.60;37.80;;;;;;7358908;19;20470;-67
2023/04/04 11:44:17;;;;;;;4.30;2.33;;;18.20;38.40;;;;;;7359223;19;19914;-66
2023/04/04 11:46:47;;;;;;;5.45;2.35;;;18.00;37.80;;;;;;7359340;19;20015;-66
2023/04/04 11:49:14;;;;;;;4.60;2.05;;;18.50;37.40;;;;;;7355183;19;20026;-66
2023/04/04 11:51:45;;;;;;;9.65;4.68;;;19.30;37.90;;;;;;7356165;19;20604;-66
2023/04/04 11:54:17;;;;;;;4.65;2.10;;;19.30;37.80;;;;;;7361431;19;20018;-62
2023/04/04 11:56:44;;;;;;;4.05;2.17;;;19.70;38.50;;;;;;7360557;19;20640;-63
2023/04/04 11:59:11;;;;;;;4.47;1.90;;;18.80;38.20;;;;;;7361673;19;20787;-63
2023/04/04 12:01:41;;;;;;;6.13;2.42;;;18.40;36.70;;;;;;7361056;19;20486;-62
2023/04/04 12:04:09;;;;;;;4.90;2.40;;;18.60;36.90;;;;;;7356789;19;20022;-62
2023/04/04 12:06:36;;;;;;;5.97;2.22;;;19.20;37.60;;;;;;7355118;19;20026;-63
2023/04/04 12:09:04;;;;;;;4.95;2.00;;;19.40;36.50;;;;;;7353455;19;20616;-64
2023/04/04 12:11:33;;;;;;;5.43;2.20;;;19.40;37.20;;;;;;7359629;19;20015;-64
2023/04/04 12:13:59;;;;;;;8.02;4.07;;;19.50;37.50;;;;;;7360875;19;20777;-63
2023/04/04 12:16:29;;;;;;;8.18;4.25;;;19.50;37.00;;;;;;7361884;19;20056;-63
2023/04/04 12:19:01;;;;;;;5.65;2.80;;;19.00;36.90;;;;;;7362811;19;20906;-64
2023/04/04 12:21:30;;;;;;;;;;;18.90;34.40;;;;;;7365771;19;20773;-64
2023/04/04 12:23:56;;;;;;;7.38;4.97;;;18.90;36.70;;;;;;7358469;19;19927;-64
2023/04/04 12:26:28;;;;;;;4.38;2.22;;;18.80;37.70;;;;;;7371288;19;20014;-64
2023/04/04 12:28:57;;;;;;;5.35;2.22;;;18.60;37.20;;;;;;7369308;19;20406;-63
2023/04/04 12:31:26;;;;;;;7.80;3.00;;;19.00;38.20;;;;;;7369924;19;20010;-63
2023/04/04 12:33:53;;;;;;;3.88;2.25;;;19.00;36.10;;;;;;7369618;19;20020;-63
2023/04/04 12:36:19;;;;;;;4.88;2.83;;;19.40;35.20;;;;;;7372735;19;20039;-63
2023/04/04 12:39:10;;;;;;;9.52;7.35;;;19.70;36.20;;;;;;7371256;19;20018;-64
2023/04/04 12:41:47;;;;;;;4.13;2.40;;;18.60;36.30;;;;;;7372984;19;20026;-63
2023/04/04 12:44:26;;;;;;;4.78;2.38;;;18.80;36.10;;;;;;7366031;19;20022;-63
2023/04/04 12:46:59;;;;;;;4.45;2.20;;;18.90;34.60;;;;;;7371063;19;20498;-62
2023/04/04 12:49:29;;;;;;;5.25;2.15;;;18.30;34.90;;;;;;7372876;19;20019;-63
2023/04/04 12:51:59;;;;;;;5.95;2.47;;;18.10;35.30;;;;;;7369193;19;20018;-64
2023/04/04 12:54:28;;;;;;;11.77;7.20;;;17.60;35.40;;;;;;7366815;19;20007;-64
2023/04/04 12:57:00;;;;;;;7.07;2.42;;;17.80;35.40;;;;;;7368503;19;21000;-64
2023/04/04 12:59:30;;;;;;;4.90;2.17;;;17.70;35.60;;;;;;7372689;19;20027;-63
2023/04/04 13:01:57;;;;;;;3.17;1.73;;;17.60;35.40;;;;;;7371918;19;20036;-63